sensor_id;sensor_type;location;lat;lon;timestamp;pressure;altitude;pressure_sealevel;temperature;humidity
57904;BME280;43720;47.462;19.030;2023-04-12T03:55:01;99754.03;;;6.92;80.90
57904;BME280;43720;47.462;19.030;2023-04-12T03:58:04;99748.78;;;6.89;81.50
57904;BME280;43720;47.462;19.030;2023-04-12T04:01:10;99735.59;;;6.78;82.03
57904;BME280;43720;47.462;19.030;2023-04-12T04:04:15;99743.34;;;6.75;81.81
57904;BME280;43720;47.462;19.030;2023-04-12T04:07:18;99749.25;;;6.69;83.08
57904;BME280;43720;47.462;19.030;2023-04-12T04:10:21;99737.00;;;6.62;84.64
57904;BME280;43720;47.462;19.030;2023-04-12T04:13:24;99734.56;;;6.70;83.85
57904;BME280;43720;47.462;19.030;2023-04-12T04:16:27;99730.75;;;6.52;84.23
57904;BME280;43720;47.462;19.030;2023-04-12T04:19:31;99740.13;;;6.46;84.10
57904;BME280;43720;47.462;19.030;2023-04-12T04:22:34;99736.56;;;6.41;83.90
57904;BME280;43720;47.462;19.030;2023-04-12T04:25:38;99733.13;;;6.42;84.75
57904;BME280;43720;47.462;19.030;2023-04-12T04:28:43;99723.66;;;6.44;83.69
57904;BME280;43720;47.462;19.030;2023-04-12T04:31:48;99719.72;;;6.62;80.98
57904;BME280;43720;47.462;19.030;2023-04-12T04:34:55;99720.91;;;6.80;79.60
57904;BME280;43720;47.462;19.030;2023-04-12T04:37:57;99727.97;;;6.85;78.33
57904;BME280;43720;47.462;19.030;2023-04-12T04:41:02;99723.78;;;6.94;78.69
57904;BME280;43720;47.462;19.030;2023-04-12T04:44:05;99724.59;;;6.93;80.43
57904;BME280;43720;47.462;19.030;2023-04-12T04:47:11;99734.97;;;6.91;78.69
57904;BME280;43720;47.462;19.030;2023-04-12T04:50:13;99727.25;;;6.96;78.70
57904;BME280;43720;47.462;19.030;2023-04-12T04:53:16;99716.72;;;6.88;78.81
57904;BME280;43720;47.462;19.030;2023-04-12T04:56:19;99723.59;;;6.84;78.07
57904;BME280;43720;47.462;19.030;2023-04-12T04:59:25;99729.09;;;7.01;78.59
57904;BME280;43720;47.462;19.030;2023-04-12T05:02:29;99719.53;;;6.99;76.00
57904;BME280;43720;47.462;19.030;2023-04-12T05:05:33;99711.06;;;7.09;74.28
57904;BME280;43720;47.462;19.030;2023-04-12T05:08:36;99722.47;;;7.17;75.66
57904;BME280;43720;47.462;19.030;2023-04-12T05:11:39;99716.47;;;7.23;73.60
57904;BME280;43720;47.462;19.030;2023-04-12T05:14:42;99716.59;;;7.30;74.96
57904;BME280;43720;47.462;19.030;2023-04-12T05:17:52;99706.47;;;7.46;73.49
57904;BME280;43720;47.462;19.030;2023-04-12T05:20:55;99703.06;;;7.50;72.56
57904;BME280;43720;47.462;19.030;2023-04-12T05:23:58;99704.84;;;7.52;72.32
57904;BME280;43720;47.462;19.030;2023-04-12T05:27:00;99701.44;;;7.56;71.68
57904;BME280;43720;47.462;19.030;2023-04-12T05:30:03;99692.03;;;7.65;72.40
57904;BME280;43720;47.462;19.030;2023-04-12T05:33:06;99697.34;;;7.72;71.82
57904;BME280;43720;47.462;19.030;2023-04-12T05:36:10;99706.06;;;7.76;70.03
57904;BME280;43720;47.462;19.030;2023-04-12T05:39:12;99703.66;;;7.90;69.95
57904;BME280;43720;47.462;19.030;2023-04-12T05:42:15;99709.09;;;8.06;69.16
57904;BME280;43720;47.462;19.030;2023-04-12T05:45:17;99710.97;;;8.15;68.05
57904;BME280;43720;47.462;19.030;2023-04-12T05:48:20;99705.75;;;8.17;66.71
57904;BME280;43720;47.462;19.030;2023-04-12T05:51:22;99718.16;;;8.33;67.83
57904;BME280;43720;47.462;19.030;2023-04-12T05:54:39;99720.84;;;8.39;67.49
57904;BME280;43720;47.462;19.030;2023-04-12T05:57:44;99715.72;;;8.45;65.90
57904;BME280;43720;47.462;19.030;2023-04-12T06:00:48;99720.16;;;8.54;66.05
57904;BME280;43720;47.462;19.030;2023-04-12T06:03:50;99726.37;;;8.64;66.55
57904;BME280;43720;47.462;19.030;2023-04-12T06:06:53;99733.38;;;8.71;65.63
57904;BME280;43720;47.462;19.030;2023-04-12T06:09:57;99739.63;;;8.84;63.19
57904;BME280;43720;47.462;19.030;2023-04-12T06:12:59;99739.75;;;8.97;63.80
57904;BME280;43720;47.462;19.030;2023-04-12T06:16:02;99752.03;;;9.06;63.43
57904;BME280;43720;47.462;19.030;2023-04-12T06:19:04;99752.13;;;9.17;62.87
57904;BME280;43720;47.462;19.030;2023-04-12T06:22:08;99746.91;;;9.17;62.17
57904;BME280;43720;47.462;19.030;2023-04-12T06:25:12;99738.16;;;9.12;64.05
57904;BME280;43720;47.462;19.030;2023-04-12T06:28:15;99732.22;;;9.26;65.09
57904;BME280;43720;47.462;19.030;2023-04-12T06:31:17;99738.34;;;9.30;61.01
57904;BME280;43720;47.462;19.030;2023-04-12T06:34:20;99736.66;;;9.34;59.12
57904;BME280;43720;47.462;19.030;2023-04-12T06:37:23;99742.72;;;9.32;59.99
57904;BME280;43720;47.462;19.030;2023-04-12T06:40:25;99741.03;;;9.38;59.20
57904;BME280;43720;47.462;19.030;2023-04-12T06:43:28;99734.06;;;9.40;60.11
57904;BME280;43720;47.462;19.030;2023-04-12T06:46:30;99746.34;;;9.50;60.49
57904;BME280;43720;47.462;19.030;2023-04-12T06:49:32;99730.75;;;9.59;57.84
57904;BME280;43720;47.462;19.030;2023-04-12T06:52:35;99734.31;;;9.64;58.29
57904;BME280;43720;47.462;19.030;2023-04-12T06:55:37;99727.34;;;9.66;59.27
57904;BME280;43720;47.462;19.030;2023-04-12T06:58:40;99735.22;;;9.74;59.52
57904;BME280;43720;47.462;19.030;2023-04-12T07:01:42;99734.41;;;9.83;57.15
57904;BME280;43720;47.462;19.030;2023-04-12T07:04:45;99742.31;;;9.95;57.84
57904;BME280;43720;47.462;19.030;2023-04-12T07:07:47;99738.88;;;9.96;57.91
57904;BME280;43720;47.462;19.030;2023-04-12T07:10:53;99739.84;;;10.12;57.24
57904;BME280;43720;47.462;19.030;2023-04-12T07:13:56;99747.66;;;10.09;55.87
57904;BME280;43720;47.462;19.030;2023-04-12T07:17:00;99746.72;;;9.97;57.08
57904;BME280;43720;47.462;19.030;2023-04-12T07:20:03;99735.44;;;10.06;55.10
57904;BME280;43720;47.462;19.030;2023-04-12T07:23:05;99731.09;;;10.10;55.60
57904;BME280;43720;47.462;19.030;2023-04-12T07:26:08;99739.09;;;10.26;57.80
57904;BME280;43720;47.462;19.030;2023-04-12T07:29:10;99726.84;;;10.22;55.02
57904;BME280;43720;47.462;19.030;2023-04-12T07:32:13;99732.16;;;10.35;56.14
57904;BME280;43720;47.462;19.030;2023-04-12T07:35:15;99734.81;;;10.48;55.59
57904;BME280;43720;47.462;19.030;2023-04-12T07:38:18;99730.53;;;10.60;54.96
57904;BME280;43720;47.462;19.030;2023-04-12T07:41:21;99727.06;;;10.71;52.91
57904;BME280;43720;47.462;19.030;2023-04-12T07:44:23;99724.50;;;10.73;55.34
57904;BME280;43720;47.462;19.030;2023-04-12T07:47:26;99727.06;;;10.62;53.39
57904;BME280;43720;47.462;19.030;2023-04-12T07:50:28;99735.75;;;10.63;56.35
57904;BME280;43720;47.462;19.030;2023-04-12T07:53:31;99729.69;;;10.71;53.84
57904;BME280;43720;47.462;19.030;2023-04-12T07:56:34;99736.63;;;10.57;53.38
57904;BME280;43720;47.462;19.030;2023-04-12T07:59:36;99731.44;;;10.71;56.97
57904;BME280;43720;47.462;19.030;2023-04-12T08:02:39;99735.81;;;10.73;53.17
57904;BME280;43720;47.462;19.030;2023-04-12T08:05:41;99738.47;;;10.89;54.14
57904;BME280;43720;47.462;19.030;2023-04-12T08:08:45;99738.41;;;10.70;54.54
57904;BME280;43720;47.462;19.030;2023-04-12T08:11:47;99734.09;;;10.88;52.78
57904;BME280;43720;47.462;19.030;2023-04-12T08:14:49;99739.38;;;11.06;54.99
57904;BME280;43720;47.462;19.030;2023-04-12T08:17:52;99733.31;;;11.16;56.11
57904;BME280;43720;47.462;19.030;2023-04-12T08:20:55;99743.75;;;11.18;52.33
57904;BME280;43720;47.462;19.030;2023-04-12T08:23:58;99738.56;;;11.19;53.26
57904;BME280;43720;47.462;19.030;2023-04-12T08:27:00;99747.28;;;11.40;54.43
57904;BME280;43720;47.462;19.030;2023-04-12T08:30:03;99737.69;;;11.60;51.67
57904;BME280;43720;47.462;19.030;2023-04-12T08:33:06;99735.97;;;11.87;51.78
57904;BME280;43720;47.462;19.030;2023-04-12T08:36:09;99742.06;;;12.01;49.18
57904;BME280;43720;47.462;19.030;2023-04-12T08:39:12;99739.44;;;11.99;50.81
57904;BME280;43720;47.462;19.030;2023-04-12T08:42:14;99729.81;;;12.09;51.25
57904;BME280;43720;47.462;19.030;2023-04-12T08:45:17;99728.84;;;12.35;51.88
57904;BME280;43720;47.462;19.030;2023-04-12T08:48:21;99718.31;;;12.56;48.01
57904;BME280;43720;47.462;19.030;2023-04-12T08:51:25;99716.47;;;12.77;49.00
57904;BME280;43720;47.462;19.030;2023-04-12T08:54:28;99719.97;;;12.79;50.25
57904;BME280;43720;47.462;19.030;2023-04-12T08:57:31;99723.56;;;12.56;47.53
57904;BME280;43720;47.462;19.030;2023-04-12T09:00:36;99716.59;;;12.49;47.26
57904;BME280;43720;47.462;19.030;2023-04-12T09:03:39;99708.00;;;12.09;48.96
57904;BME280;43720;47.462;19.030;2023-04-12T09:06:42;99716.66;;;12.29;48.96
57904;BME280;43720;47.462;19.030;2023-04-12T09:09:46;99706.97;;;12.49;48.88
57904;BME280;43720;47.462;19.030;2023-04-12T09:12:48;99718.28;;;12.62;50.85
57904;BME280;43720;47.462;19.030;2023-04-12T09:15:53;99718.31;;;12.53;49.15
57904;BME280;43720;47.462;19.030;2023-04-12T09:19:37;99707.81;;;12.56;48.00
57904;BME280;43720;47.462;19.030;2023-04-12T09:22:40;99713.81;;;12.81;46.33
57904;BME280;43720;47.462;19.030;2023-04-12T09:54:00;99692.56;;;13.26;50.27
57904;BME280;43720;47.462;19.030;2023-04-12T09:57:07;99669.75;;;13.34;46.92
57904;BME280;43720;47.462;19.030;2023-04-12T10:00:12;99667.03;;;13.43;45.13
57904;BME280;43720;47.462;19.030;2023-04-12T10:03:19;99666.31;;;13.22;42.56
57904;BME280;43720;47.462;19.030;2023-04-12T10:06:21;99672.28;;;13.43;44.51
57904;BME280;43720;47.462;19.030;2023-04-12T10:09:24;99675.81;;;13.39;44.33
57904;BME280;43720;47.462;19.030;2023-04-12T10:12:26;99675.75;;;13.50;44.14
57904;BME280;43720;47.462;19.030;2023-04-12T10:15:30;99667.78;;;13.59;45.22
57904;BME280;43720;47.462;19.030;2023-04-12T10:18:35;99667.59;;;13.80;43.77
57904;BME280;43720;47.462;19.030;2023-04-12T10:21:40;99658.69;;;13.95;45.27
57904;BME280;43720;47.462;19.030;2023-04-12T10:24:43;99650.50;;;14.19;42.42
57904;BME280;43720;47.462;19.030;2023-04-12T10:27:46;99653.25;;;14.10;43.65
57904;BME280;43720;47.462;19.030;2023-04-12T10:30:49;99656.03;;;13.98;42.27
57904;BME280;43720;47.462;19.030;2023-04-12T10:33:56;99654.38;;;13.85;43.61
57904;BME280;43720;47.462;19.030;2023-04-12T10:36:59;99656.19;;;13.78;40.15
57904;BME280;43720;47.462;19.030;2023-04-12T10:40:02;99653.84;;;13.51;44.07
57904;BME280;43720;47.462;19.030;2023-04-12T10:43:24;99648.47;;;13.67;41.67
57904;BME280;43720;47.462;19.030;2023-04-12T10:49:38;99632.09;;;14.19;40.05
57904;BME280;43720;47.462;19.030;2023-04-12T10:52:41;99623.81;;;14.53;43.64
57904;BME280;43720;47.462;19.030;2023-04-12T10:55:44;99636.09;;;14.51;40.21
57904;BME280;43720;47.462;19.030;2023-04-12T11:05:08;99619.87;;;14.82;39.96
57904;BME280;43720;47.462;19.030;2023-04-12T11:08:18;99625.09;;;14.85;40.42
57904;BME280;43720;47.462;19.030;2023-04-12T11:11:24;99617.50;;;14.65;39.28
57904;BME280;43720;47.462;19.030;2023-04-12T11:17:33;99620.91;;;14.73;39.70
57904;BME280;43720;47.462;19.030;2023-04-12T11:20:39;99609.16;;;14.94;39.82
57904;BME280;43720;47.462;19.030;2023-04-12T11:23:42;99609.06;;;15.00;36.84
57904;BME280;43720;47.462;19.030;2023-04-12T11:26:45;99613.44;;;15.01;37.34
57904;BME280;43720;47.462;19.030;2023-04-12T11:29:55;99604.59;;;15.07;40.96
57904;BME280;43720;47.462;19.030;2023-04-12T11:32:58;99608.12;;;15.55;40.75
57904;BME280;43720;47.462;19.030;2023-04-12T11:36:09;99604.34;;;15.72;37.06
57904;BME280;43720;47.462;19.030;2023-04-12T11:39:13;99600.78;;;15.74;36.05
57904;BME280;43720;47.462;19.030;2023-04-12T11:42:18;99599.53;;;15.94;36.41
57904;BME280;43720;47.462;19.030;2023-04-12T11:45:20;99597.00;;;15.89;40.10
57904;BME280;43720;47.462;19.030;2023-04-12T11:48:27;99601.50;;;15.82;36.34
57904;BME280;43720;47.462;19.030;2023-04-12T11:51:30;99593.88;;;15.69;36.37
57904;BME280;43720;47.462;19.030;2023-04-12T11:54:34;99587.22;;;15.94;38.01
57904;BME280;43720;47.462;19.030;2023-04-12T11:57:37;99591.25;;;16.10;36.86
57904;BME280;43720;47.462;19.030;2023-04-12T12:00:45;99580.75;;;16.09;34.32
57904;BME280;43720;47.462;19.030;2023-04-12T12:03:49;99573.44;;;16.22;33.25
57904;BME280;43720;47.462;19.030;2023-04-12T12:06:52;99573.66;;;16.12;34.59
57904;BME280;43720;47.462;19.030;2023-04-12T12:09:55;99569.03;;;16.22;39.30
57904;BME280;43720;47.462;19.030;2023-04-12T12:12:59;99567.44;;;16.55;36.49
57904;BME280;43720;47.462;19.030;2023-04-12T12:16:05;99558.87;;;16.46;33.46
57904;BME280;43720;47.462;19.030;2023-04-12T12:19:09;99552.28;;;16.65;36.38
57904;BME280;43720;47.462;19.030;2023-04-12T12:25:18;99550.97;;;16.46;33.51
57904;BME280;43720;47.462;19.030;2023-04-12T12:28:25;99552.88;;;16.39;32.16
57904;BME280;43720;47.462;19.030;2023-04-12T12:31:28;99545.41;;;16.18;30.54
57904;BME280;43720;47.462;19.030;2023-04-12T12:34:33;99543.81;;;16.10;31.43
57904;BME280;43720;47.462;19.030;2023-04-12T12:37:52;99537.28;;;16.28;35.09
57904;BME280;43720;47.462;19.030;2023-04-12T12:40:57;99530.50;;;16.55;31.82
57904;BME280;43720;47.462;19.030;2023-04-12T12:43:59;99533.25;;;16.49;30.61
57904;BME280;43720;47.462;19.030;2023-04-12T12:47:01;99530.28;;;16.27;30.82
57904;BME280;43720;47.462;19.030;2023-04-12T12:50:16;99521.28;;;16.36;31.48
57904;BME280;43720;47.462;19.030;2023-04-12T12:53:19;99524.31;;;16.18;30.28
57904;BME280;43720;47.462;19.030;2023-04-12T12:56:24;99534.75;;;16.22;29.70
57904;BME280;43720;47.462;19.030;2023-04-12T12:59:27;99533.84;;;16.25;30.94
57904;BME280;43720;47.462;19.030;2023-04-12T13:02:29;99512.34;;;16.42;30.27
57904;BME280;43720;47.462;19.030;2023-04-12T13:05:32;99519.03;;;16.56;30.97
57904;BME280;43720;47.462;19.030;2023-04-12T13:08:34;99516.59;;;16.86;30.01
57904;BME280;43720;47.462;19.030;2023-04-12T13:11:38;99515.16;;;16.71;27.73
57904;BME280;43720;47.462;19.030;2023-04-12T13:14:40;99514.59;;;16.58;28.92
57904;BME280;43720;47.462;19.030;2023-04-12T13:17:43;99511.09;;;16.58;30.95
57904;BME280;43720;47.462;19.030;2023-04-12T13:20:45;99514.03;;;16.83;30.83
57904;BME280;43720;47.462;19.030;2023-04-12T13:23:47;99502.25;;;16.59;28.70
57904;BME280;43720;47.462;19.030;2023-04-12T13:26:50;99499.94;;;16.47;28.00
57904;BME280;43720;47.462;19.030;2023-04-12T13:29:52;99494.59;;;16.48;27.59
57904;BME280;43720;47.462;19.030;2023-04-12T13:32:55;99502.88;;;16.70;29.28
57904;BME280;43720;47.462;19.030;2023-04-12T13:35:57;99490.97;;;16.54;27.57
57904;BME280;43720;47.462;19.030;2023-04-12T13:38:59;99493.31;;;16.66;28.82
57904;BME280;43720;47.462;19.030;2023-04-12T13:42:02;99490.09;;;16.53;27.25
57904;BME280;43720;47.462;19.030;2023-04-12T13:45:04;99484.25;;;16.78;27.29
57904;BME280;43720;47.462;19.030;2023-04-12T13:48:08;99488.84;;;16.68;26.57
57904;BME280;43720;47.462;19.030;2023-04-12T13:51:10;99474.59;;;16.77;27.23
57904;BME280;43720;47.462;19.030;2023-04-12T13:54:13;99483.84;;;16.93;29.01
57904;BME280;43720;47.462;19.030;2023-04-12T13:57:16;99481.41;;;16.85;27.87
57904;BME280;43720;47.462;19.030;2023-04-12T14:00:19;99485.56;;;16.94;28.78
57904;BME280;43720;47.462;19.030;2023-04-12T14:03:22;99476.34;;;17.10;28.37
57904;BME280;43720;47.462;19.030;2023-04-12T14:06:24;99480.81;;;17.08;30.01
57904;BME280;43720;47.462;19.030;2023-04-12T14:09:30;99477.78;;;17.22;27.70
57904;BME280;43720;47.462;19.030;2023-04-12T14:12:32;99474.47;;;17.16;27.18
57904;BME280;43720;47.462;19.030;2023-04-12T14:15:35;99468.72;;;17.00;25.59
57904;BME280;43720;47.462;19.030;2023-04-12T14:18:37;99479.81;;;17.12;27.52
57904;BME280;43720;47.462;19.030;2023-04-12T14:21:40;99475.97;;;17.24;26.62
57904;BME280;43720;47.462;19.030;2023-04-12T14:24:42;99463.59;;;16.94;26.79
57904;BME280;43720;47.462;19.030;2023-04-12T14:27:44;99460.37;;;16.82;28.11
57904;BME280;43720;47.462;19.030;2023-04-12T14:30:47;99470.94;;;17.15;28.30
57904;BME280;43720;47.462;19.030;2023-04-12T14:33:51;99470.56;;;17.29;26.97
57904;BME280;43720;47.462;19.030;2023-04-12T14:36:54;99466.94;;;17.33;25.52
57904;BME280;43720;47.462;19.030;2023-04-12T14:39:57;99465.34;;;17.58;25.66
57904;BME280;43720;47.462;19.030;2023-04-12T14:42:59;99471.62;;;17.86;27.25
57904;BME280;43720;47.462;19.030;2023-04-12T14:46:02;99464.25;;;18.25;24.78
57904;BME280;43720;47.462;19.030;2023-04-12T14:49:04;99463.91;;;18.62;26.42
57904;BME280;43720;47.462;19.030;2023-04-12T14:52:07;99463.72;;;18.68;25.10
57904;BME280;43720;47.462;19.030;2023-04-12T14:55:09;99453.94;;;18.44;25.35
57904;BME280;43720;47.462;19.030;2023-04-12T14:58:12;99454.81;;;18.97;24.53
57904;BME280;43720;47.462;19.030;2023-04-12T15:01:14;99456.34;;;19.53;24.25
57904;BME280;43720;47.462;19.030;2023-04-12T15:04:18;99452.06;;;19.74;25.12
57904;BME280;43720;47.462;19.030;2023-04-12T15:07:20;99454.38;;;20.05;23.27
57904;BME280;43720;47.462;19.030;2023-04-12T15:10:24;99464.34;;;20.22;25.18
57904;BME280;43720;47.462;19.030;2023-04-12T15:13:26;99457.78;;;20.09;24.02
57904;BME280;43720;47.462;19.030;2023-04-12T15:16:35;99457.59;;;19.91;24.35
57904;BME280;43720;47.462;19.030;2023-04-12T15:19:39;99465.44;;;19.94;24.31
